Latest Weather Observations for Ernabella/Pukatja

IDS60801

Issued at 1:01 pm CST Saturday 5 September 2015 (issued every 30 minutes, with the page automatically refreshed every 10 minutes)

About weather observations | Map of weather stations | Latest weather observations for SA | Other Formats
Station Details ID: 016097 Name: PUKATJA Lat: -26.26 Lon: 132.18 Height: 703.2 m
Data from the previous 72 hours. | See also: Recent months at Ernabella/Pukatja
Date/Time
CST
Temp
°C
App
Temp
°C
Dew
Point
Rel
Hum
%
Delta-T
°C
Wind Press
QNH
hPa
Press
MSL
hPa
Rain
since 9 am
mm
Dir
 
Spd
km/h
Gust
km/h
Spd
kts
Gust
kts
05/01:00pm 21.6 17.5 -0.4 23 10.1 NNE 11 20 6 11 1021.4 - 0.0
05/12:30pm 21.1 17.1 0.3 25 9.7 N 11 26 6 14 1021.7 - 0.0
05/12:00pm 20.3 16.1 1.7 29 8.8 N 13 19 7 10 1022.4 1019.9 0.0
05/11:30am 19.5 14.9 1.5 30 8.5 N 15 24 8 13 1023.1 - 0.0
05/11:00am 18.9 14.0 1.9 32 8.0 NNE 17 26 9 14 1023.7 - 0.0
05/10:30am 17.9 13.0 2.2 35 7.4 N 17 26 9 14 1024.1 - 0.0
05/10:00am 16.3 10.4 2.0 38 6.6 NNE 22 28 12 15 1024.3 - 0.0
05/09:30am 15.2 9.4 2.1 41 6.0 N 22 30 12 16 1024.6 - 0.0
05/09:00am 14.5 8.7 2.1 43 5.7 N 22 30 12 16 1024.8 1022.3 0.0
05/08:30am 13.7 8.4 2.0 45 5.3 NNE 19 28 10 15 1024.8 - 0.0
05/08:00am 12.9 8.8 2.2 48 4.8 NNE 13 15 7 8 1024.6 - 0.0
05/07:30am 11.3 8.3 2.1 53 4.1 NNE 7 13 4 7 1024.2 - 0.0
05/07:00am 11.2 7.1 2.0 53 4.1 NNE 13 20 7 11 1024.0 - 0.0
05/06:30am 11.2 7.1 2.2 54 4.0 N 13 20 7 11 1023.8 - 0.0
05/06:00am 9.6 5.7 1.3 56 3.6 NNE 11 13 6 7 1023.6 1021.1 0.0
05/05:30am 8.4 5.4 1.1 60 3.1 E 6 7 3 4 1023.3 - 0.0
05/05:00am 5.5 2.0 -1.0 63 2.5 E 7 9 4 5 1022.9 - 0.0
05/04:30am 7.7 4.4 0.4 60 3.0 E 7 9 4 5 1022.6 - 0.0
05/04:00am 6.6 3.2 -0.8 59 2.9 ENE 7 9 4 5 1022.5 - 0.0
05/03:30am 9.9 6.3 0.3 51 4.1 E 9 11 5 6 1022.6 - 0.0
05/03:00am 9.7 5.7 0.3 52 3.9 E 11 11 6 6 1022.8 1020.3 0.0
05/02:30am 9.7 6.1 0.3 52 4.0 E 9 9 5 5 1023.3 - 0.0
05/02:00am 9.5 6.3 0.9 55 3.7 E 7 9 4 5 1023.3 - 0.0
05/01:30am 9.1 5.8 0.3 54 3.7 E 7 7 4 4 1023.4 - 0.0
05/01:00am 10.9 9.0 0.3 48 4.5 CALM 0 0 0 0 1023.7 - 0.0
05/12:30am 10.4 8.5 0.4 50 4.3 CALM 0 0 0 0 1024.0 - 0.0
05/12:00am 10.0 8.2 0.9 53 3.9 CALM 0 0 0 0 1024.1 1021.7 0.0
 
Date/Time
CST
Temp
°C
App
Temp
°C
Dew
Point
Rel
Hum
%
Delta-T
°C
Wind Press
QNH
hPa
Press
MSL
hPa
Rain
since 9 am
mm
Dir
 
Spd
km/h
Gust
km/h
Spd
kts
Gust
kts
04/11:30pm 10.6 7.4 0.6 50 4.3 E 7 9 4 5 1024.3 - 0.0
04/11:00pm 11.3 8.3 0.7 48 4.6 E 6 6 3 3 1024.7 - 0.0
04/10:30pm 11.6 8.5 0.4 46 4.8 ESE 6 7 3 4 1024.6 - 0.0
04/10:00pm 12.2 9.0 0.6 45 5.0 ENE 7 9 4 5 1024.6 - 0.0
04/09:30pm 12.2 8.6 0.6 45 5.0 ENE 9 9 5 5 1024.6 - 0.0
04/09:00pm 13.1 9.5 0.5 42 5.5 ENE 9 11 5 6 1024.6 1022.1 0.0
04/08:30pm 14.7 10.7 0.5 38 6.3 E 11 13 6 7 1024.2 - 0.0
04/08:00pm 14.1 10.0 0.0 38 6.2 E 11 13 6 7 1023.9 - 0.0
04/07:30pm 14.9 11.2 0.0 36 6.6 E 9 13 5 7 1023.5 - 0.0
04/07:00pm 16.0 12.3 -0.2 33 7.2 E 9 11 5 6 1023.2 - 0.0
04/06:30pm 17.9 14.5 -0.4 29 8.2 NE 7 9 4 5 1022.8 - 0.0
04/06:00pm 19.7 15.7 0.2 27 8.9 NE 11 17 6 9 1022.5 1020.0 0.0
04/05:30pm 20.2 16.5 0.1 26 9.3 NE 9 13 5 7 1022.3 - 0.0
04/05:00pm 20.8 17.6 0.6 26 9.4 ENE 7 15 4 8 1022.2 - 0.0
04/04:30pm 20.6 16.6 0.4 26 9.4 ESE 11 17 6 9 1022.2 - 0.0
04/04:00pm 20.1 16.1 0.5 27 9.1 ENE 11 17 6 9 1022.2 - 0.0
04/03:30pm 20.4 16.1 0.8 27 9.2 E 13 20 7 11 1022.4 - 0.0
04/03:00pm 20.5 16.9 0.9 27 9.2 N 9 15 5 8 1022.5 1020.0 0.0
04/02:30pm 20.0 16.5 1.0 28 8.9 ESE 9 17 5 9 1022.8 - 0.0
04/02:00pm 19.7 16.0 0.2 27 9.0 W 9 13 5 7 1023.3 - 0.0
04/01:30pm 18.8 14.9 1.3 31 8.2 N 11 17 6 9 1023.7 - 0.0
04/01:00pm 19.6 16.6 2.0 31 8.4 SSW 7 13 4 7 1024.3 - 0.0
04/12:30pm 18.6 15.2 2.0 33 7.8 SW 9 15 5 8 1024.9 - 0.0
04/12:00pm 18.3 14.9 3.8 38 7.0 NE 11 17 6 9 1025.3 1022.8 0.0
04/11:30am 17.1 14.2 4.4 43 6.2 E 9 17 5 9 1025.7 - 0.0
04/11:00am 16.2 12.9 4.6 46 5.7 NE 11 19 6 10 1026.2 - 0.0
04/10:30am 15.0 11.0 4.7 50 5.0 NNE 15 20 8 11 1026.5 - 0.0
04/10:00am 14.4 10.2 5.5 55 4.4 NE 17 24 9 13 1026.7 - 0.0
04/09:30am 14.2 9.6 5.8 57 4.2 ENE 19 22 10 12 1026.8 - 0.0
04/09:00am 13.0 9.6 5.9 62 3.5 ENE 13 19 7 10 1026.8 1024.4 0.0
04/08:30am 11.2 8.8 5.3 67 2.8 NE 7 11 4 6 1026.7 - 0.0
04/08:00am 9.9 8.8 5.3 73 2.2 CALM 0 0 0 0 1026.3 - 0.0
04/07:30am 7.6 6.5 5.2 85 1.1 CALM 0 0 0 0 1026.2 - 0.0
04/07:00am 5.7 3.0 3.5 86 1.0 N 7 9 4 5 1026.0 - 0.0
04/06:30am 5.6 2.8 3.3 85 1.0 N 7 9 4 5 1025.9 - 0.0
04/06:00am 5.4 2.6 2.9 84 1.1 ENE 7 9 4 5 1025.6 1023.2 0.0
04/05:30am 6.7 4.1 4.0 83 1.2 E 7 13 4 7 1025.5 - 0.0
04/05:00am 6.9 4.4 3.5 79 1.5 E 6 7 3 4 1025.2 - 0.0
04/04:30am 7.5 5.0 3.7 77 1.7 E 6 9 3 5 1025.0 - 0.0
04/04:00am 8.8 5.8 4.2 73 2.1 E 9 13 5 7 1025.0 - 0.0
04/03:30am 10.2 6.6 5.2 71 2.4 SE 13 17 7 9 1025.1 - 0.0
04/03:00am 9.4 6.1 4.6 72 2.2 E 11 15 6 8 1025.2 1022.7 0.0
04/02:30am 10.2 6.2 4.8 69 2.5 SE 15 20 8 11 1025.2 - 0.0
04/02:00am 10.5 5.8 5.1 69 2.6 SSE 19 22 10 12 1025.4 - 0.0
04/01:30am 10.6 5.8 4.9 68 2.7 SE 19 22 10 12 1025.6 - 0.0
04/01:00am 10.6 5.8 4.7 67 2.8 SE 19 24 10 13 1025.7 - 0.0
04/12:30am 10.9 6.5 4.8 66 2.9 SE 17 24 9 13 1025.9 - 0.0
04/12:00am 11.2 6.8 4.7 64 3.0 SE 17 22 9 12 1026.0 1023.6 0.0
 
Date/Time
CST
Temp
°C
App
Temp
°C
Dew
Point
Rel
Hum
%
Delta-T
°C
Wind Press
QNH
hPa
Press
MSL
hPa
Rain
since 9 am
mm
Dir
 
Spd
km/h
Gust
km/h
Spd
kts
Gust
kts
03/11:30pm 11.7 6.9 4.4 61 3.4 SE 19 26 10 14 1026.0 - 0.0
03/11:00pm 12.2 7.7 4.4 59 3.7 SE 17 26 9 14 1026.2 - 0.0
03/10:30pm 12.5 7.6 4.0 56 4.0 SE 19 26 10 14 1026.3 - 0.0
03/10:00pm 13.1 9.3 3.7 53 4.4 SE 13 17 7 9 1026.2 - 0.0
03/09:30pm 13.3 9.0 3.4 51 4.6 SE 15 20 8 11 1026.0 - 0.0
03/09:00pm 13.9 9.6 3.4 49 4.9 SE 15 22 8 12 1025.7 1023.3 0.0
03/08:30pm 13.8 9.9 3.3 49 4.9 ESE 13 17 7 9 1025.3 - 0.0
03/08:00pm 14.2 9.8 2.8 46 5.3 ESE 15 20 8 11 1024.9 - 0.0
03/07:30pm 14.4 10.4 2.6 45 5.5 E 13 17 7 9 1024.6 - 0.0
03/07:00pm 14.7 10.6 2.3 43 5.7 E 13 19 7 10 1024.1 - 0.0
03/06:30pm 15.6 11.1 2.1 40 6.2 E 15 20 8 11 1023.8 - 0.0
03/06:00pm 16.5 12.3 1.8 37 6.8 SE 13 19 7 10 1023.7 1021.2 0.0
03/05:30pm 17.0 13.1 1.0 34 7.3 ESE 11 17 6 9 1023.4 - 0.0
03/05:00pm 17.3 13.0 1.3 34 7.4 ESE 13 20 7 11 1023.2 - 0.0
03/04:30pm 17.8 13.1 0.9 32 7.8 ESE 15 20 8 11 1022.9 - 0.0
03/04:00pm 17.8 12.8 1.3 33 7.6 ESE 17 26 9 14 1022.8 - 0.0
03/03:30pm 17.9 13.2 1.0 32 7.8 ESE 15 26 8 14 1022.9 - 0.0
03/03:00pm 18.2 14.8 1.7 33 7.7 SE 9 20 5 11 1023.4 1020.9 0.0
03/02:30pm 17.8 13.5 1.3 33 7.6 ESE 13 20 7 11 1023.4 - 0.0
03/02:00pm 16.8 12.2 1.3 35 7.1 ESE 15 26 8 14 1023.8 - 0.0
03/01:30pm 16.1 12.3 1.8 38 6.6 SSE 11 20 6 11 1024.3 - 0.0
03/01:00pm 15.3 11.2 2.1 41 6.1 SE 13 22 7 12 1024.9 - 0.0
03/12:30pm 15.8 11.2 1.5 38 6.5 ESE 15 22 8 12 1025.2 - 0.0
03/12:00pm 14.1 9.6 2.4 45 5.3 SSE 15 22 8 12 1025.6 1023.2 0.0
03/11:30am 13.5 8.2 2.1 46 5.2 SSE 19 28 10 15 1025.8 - 0.0
03/11:00am 12.6 7.3 3.0 52 4.4 SSW 20 24 11 13 1026.3 - 0.0
03/10:30am 11.9 6.8 2.9 54 4.1 SSE 19 26 10 14 1026.5 - 0.0
03/10:00am 11.3 6.1 3.3 58 3.7 S 20 28 11 15 1026.6 - 0.0
03/09:30am 10.3 5.3 3.6 63 3.1 SSE 19 26 10 14 1026.7 - 0.0
03/09:00am 9.6 5.0 3.6 66 2.7 S 17 26 9 14 1026.6 1024.1 0.0
03/08:30am 8.6 4.7 3.6 71 2.3 SSE 13 20 7 11 1026.4 - 0.0
03/08:00am 7.9 3.7 3.8 75 1.8 S 15 20 8 11 1025.7 - 0.0
03/07:30am 7.2 2.2 3.6 78 1.6 SSE 19 24 10 13 1025.5 - 0.0
03/07:00am 7.0 1.9 3.3 77 1.6 SSE 19 26 10 14 1025.1 - 0.0
03/06:30am 7.3 2.6 3.0 74 1.9 SSE 17 20 9 11 1024.8 - 0.0
03/06:00am 7.4 2.6 2.7 72 2.0 SSE 17 22 9 12 1024.4 1022.0 0.0
03/05:30am 7.7 2.6 3.0 72 2.1 SSE 19 24 10 13 1024.2 - 0.0
03/05:00am 8.0 3.3 2.9 70 2.2 SSE 17 26 9 14 1023.9 - 0.0
03/04:30am 7.7 3.6 2.2 68 2.4 S 13 17 7 9 1023.7 - 0.0
03/04:00am 8.7 5.0 2.3 64 2.8 S 11 17 6 9 1023.7 - 0.0
03/03:30am 9.1 4.6 2.0 61 3.1 S 15 24 8 13 1023.7 - 0.0
03/03:00am 9.8 4.9 1.9 58 3.4 S 17 20 9 11 1023.6 1021.1 0.0
03/02:30am 10.2 4.9 1.8 56 3.7 S 19 26 10 14 1023.5 - 0.0
03/02:00am 10.7 5.4 1.8 54 3.9 S 19 28 10 15 1023.4 - 0.0
03/01:30am 11.0 5.4 1.3 51 4.2 S 20 33 11 18 1023.5 - 0.0
03/01:00am 11.1 4.7 1.1 50 4.4 S 24 33 13 18 1023.3 - 0.0
03/12:30am 11.5 4.8 1.2 49 4.5 S 26 33 14 18 1023.3 - 0.0
03/12:00am 11.6 4.8 1.0 48 4.6 S 26 37 14 20 1022.9 1020.5 0.0
 
Date/Time
CST
Temp
°C
App
Temp
°C
Dew
Point
Rel
Hum
%
Delta-T
°C
Wind Press
QNH
hPa
Press
MSL
hPa
Rain
since 9 am
mm
Dir
 
Spd
km/h
Gust
km/h
Spd
kts
Gust
kts
02/11:30pm 11.9 5.0 0.1 44 5.1 S 26 35 14 19 1023.2 - 0.0
02/11:00pm 12.5 6.2 -0.7 40 5.6 S 22 32 12 17 1023.3 - 0.0
02/10:30pm 12.8 6.1 -1.1 38 5.9 S 24 33 13 18 1023.2 - 0.0
02/10:00pm 13.1 7.2 -0.9 38 5.9 SSW 20 26 11 14 1022.9 - 0.0
02/09:30pm 13.3 7.6 -1.1 37 6.1 SSW 19 30 10 16 1022.7 - 0.0
02/09:00pm 13.7 8.3 -1.5 35 6.4 S 17 26 9 14 1022.6 1020.1 0.0
02/08:30pm 14.2 7.7 -2.2 32 6.8 SSW 22 32 12 17 1022.1 - 0.0
02/08:00pm 14.2 7.7 -2.2 32 6.8 SSW 22 30 12 16 1021.8 - 0.0
02/07:30pm 14.1 9.0 -2.3 32 6.8 SW 15 20 8 11 1021.4 - 0.0
02/07:00pm 14.6 8.5 -2.3 31 7.1 SSW 20 33 11 18 1021.0 - 0.0
02/06:30pm 15.1 8.6 -2.3 30 7.3 SW 22 32 12 17 1020.8 - 0.0
02/06:00pm 16.0 8.7 -2.5 28 7.8 SW 26 33 14 18 1020.7 1018.2 0.0
02/05:30pm 16.4 8.9 -1.7 29 7.8 SW 28 37 15 20 1020.4 - 0.0
02/05:00pm 17.0 9.9 -1.1 29 7.9 SW 26 39 14 21 1019.9 - 0.0
02/04:30pm 16.9 9.4 -1.2 29 7.9 SSW 28 43 15 23 1019.5 - 0.0
02/04:00pm 17.3 9.0 -1.9 27 8.3 SSW 32 41 17 22 1019.5 - 0.0
02/03:30pm 17.2 8.9 -1.9 27 8.2 SSW 32 41 17 22 1019.3 - 0.0
02/03:00pm 17.3 9.0 -1.4 28 8.1 SSW 32 44 17 24 1019.1 1016.6 0.0
02/02:30pm 17.1 8.6 -1.5 28 8.1 SW 33 46 18 25 1019.2 - 0.0
02/02:07pm 16.0 8.5 -1.1 31 7.4 SW 28 46 15 25 1019.2 - 0.0
02/02:00pm 16.1 8.7 -0.6 32 7.3 WSW 28 41 15 22 1019.2 - 0.0
02/01:30pm 15.3 8.0 0.3 36 6.7 SW 28 39 15 21 1019.6 - 0.0

Other Formats:

Comma delimited format used in spreadsheet applications
http://www.bom.gov.au/fwo/IDS60801/IDS60801.94474.axf

JavaScript Object Notation format (JSON) in row-major order
http://www.bom.gov.au/fwo/IDS60801/IDS60801.94474.json